LFLL/LYS METAR and TAF weather

Enter ICAO airport designator
Station Type Date Time Source
LFLL METAR 2022/11/30 18:00 UTC NOAA

LFLL 301800Z 35013KT 9999 FEW030 BKN046 BKN066 07/05 Q1018 NOSIG


Station Type Date Time Source
LFLL Decoded METAR 2022/11/30 18:00 UTC NOAA

Lyon / Satolas, France (LFLL) 45-44N 005-05E 240M
Nov 30, 2022 - 01:00 PM EST / 2022.11.30 1800 UTC
Wind: from the N (350 degrees) at 15 MPH (13 KT):0
Visibility: greater than 7 mile(s):0
Sky conditions: mostly cloudy
Temperature: 44 F (7 C)
Dew Point: 41 F (5 C)
Relative Humidity: 87%
Pressure (altimeter): 30.06 in. Hg (1018 hPa)
ob: LFLL 301800Z 35013KT 9999 FEW030 BKN046 BKN066 07/05 Q1018 NOSIG
cycle: 18

Station Type Date Time Source
LFLL TAF 2022/11/30 18:21 UTC NOAA

TAF LFLL 301700Z 3018/0124 35010KT 9999 BKN016 PROB40
TEMPO 3018/0109 OVC012

Example: see airport list